createdAt,value
2022-08-10T00:02:52.936Z,15.60
2022-08-10T00:07:55.770Z,15.60
2022-08-10T00:12:58.354Z,15.70
2022-08-10T00:18:00.975Z,15.40
2022-08-10T00:23:04.665Z,16.00
2022-08-10T00:28:07.099Z,16.10
2022-08-10T00:33:09.780Z,15.60
2022-08-10T00:38:12.677Z,15.40
2022-08-10T00:43:15.149Z,15.30
2022-08-10T00:48:25.927Z,15.20
2022-08-10T00:53:30.732Z,14.80
2022-08-10T00:58:33.918Z,14.70
2022-08-10T01:04:36.815Z,15.00
2022-08-10T01:09:07.849Z,14.80
2022-08-10T01:14:37.674Z,14.80
2022-08-10T01:19:55.736Z,14.90
2022-08-10T01:25:18.095Z,15.10
2022-08-10T01:30:22.830Z,14.80
2022-08-10T01:35:53.116Z,15.00
2022-08-10T01:41:06.338Z,14.80
2022-08-10T01:46:10.922Z,14.70
2022-08-10T01:51:22.438Z,14.80
2022-08-10T01:56:28.336Z,14.60
2022-08-10T02:01:36.266Z,14.50
2022-08-10T02:06:48.911Z,14.60
2022-08-10T02:12:05.151Z,14.60
2022-08-10T02:17:58.416Z,14.50
2022-08-10T02:22:39.576Z,14.60
2022-08-10T02:27:43.612Z,14.60
2022-08-10T02:32:52.658Z,14.30
2022-08-10T02:38:03.557Z,14.30
2022-08-10T02:45:24.429Z,14.30
2022-08-10T02:48:47.177Z,14.10
2022-08-10T02:53:55.908Z,13.80
2022-08-10T02:59:17.458Z,13.60
2022-08-10T03:04:56.203Z,13.50
2022-08-10T03:09:48.800Z,13.60
2022-08-10T03:14:51.811Z,13.50
2022-08-10T03:20:34.466Z,13.50
2022-08-10T03:25:22.008Z,13.90
2022-08-10T03:30:33.038Z,13.60
2022-08-10T03:35:36.605Z,13.40
2022-08-10T03:40:45.146Z,13.50
2022-08-10T03:45:57.928Z,13.80
2022-08-10T03:51:02.044Z,13.70
2022-08-10T03:56:28.744Z,13.70
2022-08-10T04:02:52.642Z,13.80
2022-08-10T04:06:54.710Z,13.70
2022-08-10T04:11:57.722Z,13.50
2022-08-10T04:17:00.226Z,13.50
2022-08-10T04:22:13.936Z,13.70
2022-08-10T04:27:17.221Z,13.70
2022-08-10T04:32:21.904Z,14.10
2022-08-10T04:37:25.517Z,14.40
2022-08-10T04:42:28.154Z,14.70
2022-08-10T04:48:00.312Z,14.80
2022-08-10T04:52:53.758Z,15.10
2022-08-10T04:57:56.402Z,15.30
2022-08-10T05:02:58.957Z,15.50
2022-08-10T05:08:01.472Z,15.70
2022-08-10T05:13:04.091Z,15.80
2022-08-10T05:18:09.763Z,15.90
2022-08-10T05:23:13.905Z,16.00
2022-08-10T05:28:16.408Z,16.20
2022-08-10T05:33:18.838Z,16.30
2022-08-10T05:38:25.610Z,16.40
2022-08-10T05:43:28.362Z,16.60
2022-08-10T05:48:54.509Z,16.70
2022-08-10T05:54:01.256Z,16.70
2022-08-10T05:59:07.958Z,16.90
2022-08-10T06:04:15.498Z,17.00
2022-08-10T06:09:19.437Z,17.30
2022-08-10T06:14:41.755Z,17.50
2022-08-10T06:19:54.765Z,17.60
2022-08-10T06:25:31.986Z,17.70
2022-08-10T06:30:22.224Z,17.70
2022-08-10T06:35:32.877Z,17.90
2022-08-10T06:40:45.846Z,18.10
2022-08-10T06:46:07.832Z,18.20
2022-08-10T06:51:18.130Z,18.40
2022-08-10T06:56:36.687Z,18.50
2022-08-10T07:01:50.930Z,18.70
2022-08-10T07:06:55.519Z,18.90
2022-08-10T07:12:07.617Z,19.10
2022-08-10T07:17:16.080Z,19.30
2022-08-10T07:23:22.752Z,19.40
2022-08-10T07:27:58.417Z,19.70
2022-08-10T07:33:02.930Z,19.80
2022-08-10T07:38:07.598Z,20.00
2022-08-10T07:43:11.201Z,20.00
2022-08-10T07:48:24.942Z,20.20
2022-08-10T07:53:32.453Z,20.40
2022-08-10T07:58:46.390Z,20.50
2022-08-10T08:04:10.574Z,20.70
2022-08-10T08:09:14.420Z,20.90
2022-08-10T08:14:19.009Z,21.00
2022-08-10T08:19:38.033Z,21.20
2022-08-10T08:24:45.896Z,21.30
2022-08-10T08:29:49.748Z,21.50
2022-08-10T08:34:59.673Z,21.60
2022-08-10T08:40:05.447Z,21.80
2022-08-10T08:45:54.045Z,21.90
2022-08-10T08:51:09.910Z,22.10
2022-08-10T08:56:29.992Z,22.40
2022-08-10T09:01:49.951Z,22.50
2022-08-10T09:06:55.167Z,23.00
2022-08-10T09:12:26.833Z,23.20
2022-08-10T09:17:49.528Z,23.50
2022-08-10T09:23:04.365Z,23.50
2022-08-10T09:28:14.478Z,23.80
2022-08-10T09:36:23.156Z,24.20
2022-08-10T09:39:12.202Z,24.50
2022-08-10T09:44:57.617Z,24.70
2022-08-10T09:51:09.348Z,25.10
2022-08-10T09:56:21.396Z,25.50
2022-08-10T10:02:03.892Z,25.70
2022-08-10T10:07:07.140Z,25.40
2022-08-10T10:12:25.981Z,25.50
2022-08-10T10:18:01.337Z,25.70
2022-08-10T10:23:12.700Z,26.30
2022-08-10T10:28:24.026Z,26.80
2022-08-10T10:33:51.357Z,26.90
2022-08-10T10:38:57.392Z,26.70
2022-08-10T10:44:20.319Z,26.70
2022-08-10T10:49:31.207Z,26.70
2022-08-10T10:54:57.154Z,27.30
2022-08-10T11:00:11.965Z,27.70
2022-08-10T11:05:37.409Z,27.90
2022-08-10T11:10:53.273Z,28.10
2022-08-10T11:16:24.459Z,28.60
2022-08-10T11:21:32.669Z,29.00
2022-08-10T11:26:41.253Z,29.20
2022-08-10T11:31:50.675Z,28.70
2022-08-10T11:37:10.987Z,28.30
2022-08-10T11:42:33.210Z,28.90
2022-08-10T11:48:02.450Z,29.70
2022-08-10T11:53:15.594Z,30.30
2022-08-10T11:58:40.640Z,30.90
2022-08-10T12:03:44.585Z,30.50
2022-08-10T12:10:03.450Z,29.50
2022-08-10T12:14:22.517Z,28.90
2022-08-10T12:19:59.674Z,28.40
2022-08-10T12:25:07.964Z,28.50
2022-08-10T12:30:16.027Z,30.20
2022-08-10T12:36:01.658Z,31.70
2022-08-10T12:42:07.512Z,31.30
2022-08-10T12:47:29.990Z,31.50
2022-08-10T12:52:44.285Z,32.40
2022-08-10T12:57:55.227Z,31.40
2022-08-10T13:03:03.450Z,30.60
2022-08-10T13:08:28.079Z,31.00
2022-08-10T13:13:35.222Z,33.30
2022-08-10T13:18:43.760Z,34.30
2022-08-10T13:24:03.310Z,34.10
2022-08-10T13:29:13.805Z,34.60
2022-08-10T13:34:42.742Z,36.10
2022-08-10T13:39:59.375Z,36.60
2022-08-10T13:45:33.379Z,37.40
2022-08-10T13:50:38.715Z,37.30
2022-08-10T13:55:55.321Z,36.80
2022-08-10T14:01:01.750Z,36.00
2022-08-10T14:06:06.786Z,38.20
2022-08-10T14:11:15.655Z,38.90
2022-08-10T14:16:19.604Z,40.40
2022-08-10T14:21:22.443Z,40.80
2022-08-10T14:26:29.471Z,40.70
2022-08-10T14:31:36.506Z,38.00
2022-08-10T14:36:48.230Z,36.40
2022-08-10T14:42:02.843Z,37.00
2022-08-10T14:47:52.180Z,39.50
2022-08-10T14:52:44.360Z,39.10
2022-08-10T14:58:16.224Z,36.10
2022-08-10T15:03:58.426Z,34.20
2022-08-10T15:08:38.623Z,33.00
2022-08-10T15:14:15.066Z,32.30
2022-08-10T15:20:00.964Z,34.70
2022-08-10T15:24:55.315Z,35.60
2022-08-10T15:29:58.831Z,34.60
2022-08-10T15:35:25.581Z,33.20
2022-08-10T15:40:39.105Z,35.40
2022-08-10T15:46:04.777Z,38.00
2022-08-10T15:51:17.233Z,39.80
2022-08-10T15:56:46.215Z,40.80
2022-08-10T16:02:13.726Z,41.60
2022-08-10T16:07:59.168Z,40.60
2022-08-10T16:13:50.519Z,41.20
2022-08-10T16:18:34.390Z,40.80
2022-08-10T16:23:41.061Z,40.00
2022-08-10T16:28:59.082Z,39.10
2022-08-10T16:34:04.802Z,40.30
2022-08-10T16:39:08.291Z,38.00
2022-08-10T16:44:26.017Z,38.10
2022-08-10T16:49:34.144Z,36.50
2022-08-10T16:54:39.429Z,34.70
2022-08-10T16:59:44.967Z,34.70
2022-08-10T17:04:50.950Z,34.30
2022-08-10T17:09:55.862Z,34.70
2022-08-10T17:15:09.440Z,35.50
2022-08-10T17:20:30.926Z,35.80
2022-08-10T17:25:46.003Z,35.70
2022-08-10T17:30:58.149Z,33.20
2022-08-10T17:36:04.192Z,31.40
2022-08-10T17:41:14.285Z,30.30
2022-08-10T17:46:17.370Z,29.30
2022-08-10T17:51:20.425Z,28.80
2022-08-10T17:56:23.711Z,28.30
2022-08-10T18:01:40.365Z,27.80
2022-08-10T18:06:51.143Z,27.70
2022-08-10T18:12:00.633Z,27.30
2022-08-10T18:17:13.090Z,27.00
2022-08-10T18:22:17.835Z,26.70
2022-08-10T18:27:21.111Z,26.40
2022-08-10T18:32:26.014Z,26.00
2022-08-10T18:37:29.937Z,25.30
2022-08-10T18:42:50.863Z,24.90
2022-08-10T18:48:16.296Z,24.60
2022-08-10T18:53:33.179Z,24.50
2022-08-10T18:59:02.909Z,23.90
2022-08-10T19:04:37.091Z,23.10
2022-08-10T19:10:10.279Z,22.80
2022-08-10T19:15:15.930Z,22.50
2022-08-10T19:20:41.192Z,21.90
2022-08-10T19:26:40.769Z,22.00
2022-08-10T19:31:24.727Z,21.60
2022-08-10T19:37:10.061Z,21.10
2022-08-10T19:42:31.829Z,20.90
2022-08-10T19:47:49.136Z,20.70
2022-08-10T19:53:18.947Z,20.80
2022-08-10T19:58:45.943Z,20.70
2022-08-10T20:03:57.580Z,20.50
2022-08-10T20:09:10.795Z,20.30
2022-08-10T20:14:50.988Z,20.20
2022-08-10T20:20:18.845Z,19.80
2022-08-10T20:25:28.303Z,19.40
2022-08-10T20:30:35.049Z,19.40
2022-08-10T20:35:49.872Z,19.20
2022-08-10T20:41:32.126Z,19.20
2022-08-10T20:46:59.461Z,19.00
2022-08-10T20:52:04.470Z,19.00
2022-08-10T20:58:03.932Z,18.50
2022-08-10T21:03:31.886Z,18.20
2022-08-10T21:09:00.628Z,18.30
2022-08-10T21:14:03.006Z,18.20
2022-08-10T21:19:52.174Z,18.10
2022-08-10T21:25:15.406Z,18.10
2022-08-10T21:30:24.862Z,18.00
2022-08-10T21:35:37.836Z,17.90
2022-08-10T21:41:57.794Z,17.70
2022-08-10T21:48:06.932Z,17.50
2022-08-10T21:59:42.644Z,17.40
2022-08-10T22:05:03.779Z,17.40
2022-08-10T22:10:27.787Z,17.40
2022-08-10T22:16:05.509Z,17.10
2022-08-10T22:21:51.760Z,16.80
2022-08-10T22:27:56.683Z,16.60
2022-08-10T22:31:25.493Z,17.60
2022-08-10T22:33:34.982Z,17.00
2022-08-10T22:38:56.168Z,16.80
2022-08-10T22:44:21.328Z,16.70
2022-08-10T22:49:24.401Z,16.30
2022-08-10T22:54:49.846Z,16.00
2022-08-10T22:59:52.524Z,16.40
2022-08-10T23:05:12.914Z,16.40
2022-08-10T23:10:18.346Z,15.90
2022-08-10T23:15:46.929Z,16.10
2022-08-10T23:20:51.923Z,16.10
2022-08-10T23:25:58.456Z,15.60
2022-08-10T23:31:01.820Z,15.80
2022-08-10T23:36:33.955Z,16.20
2022-08-10T23:41:31.368Z,15.80
2022-08-10T23:46:38.491Z,15.80
2022-08-10T23:51:55.171Z,15.90
2022-08-10T23:57:01.787Z,15.60
